sensor_id;sensor_type;location;lat;lon;timestamp;temperature;humidity
22185;DHT22;11258;52.516;13.318;2023-09-18T00:00:40;21.60;99.90
22185;DHT22;11258;52.516;13.318;2023-09-18T00:03:08;21.60;99.90
22185;DHT22;11258;52.516;13.318;2023-09-18T00:05:34;21.50;99.90
22185;DHT22;11258;52.516;13.318;2023-09-18T00:07:59;21.60;99.90
22185;DHT22;11258;52.516;13.318;2023-09-18T00:10:27;21.50;99.90
22185;DHT22;11258;52.516;13.318;2023-09-18T00:12:54;21.50;99.90
22185;DHT22;11258;52.516;13.318;2023-09-18T00:15:20;21.40;99.90
22185;DHT22;11258;52.516;13.318;2023-09-18T00:17:46;21.30;99.90
22185;DHT22;11258;52.516;13.318;2023-09-18T00:20:11;21.40;99.90
22185;DHT22;11258;52.516;13.318;2023-09-18T00:22:37;21.30;99.90
22185;DHT22;11258;52.516;13.318;2023-09-18T00:25:03;21.20;99.90
22185;DHT22;11258;52.516;13.318;2023-09-18T00:27:29;21.20;99.90
22185;DHT22;11258;52.516;13.318;2023-09-18T00:29:54;21.10;99.90
22185;DHT22;11258;52.516;13.318;2023-09-18T00:32:20;21.10;99.90
22185;DHT22;11258;52.516;13.318;2023-09-18T00:34:46;21.20;99.90
22185;DHT22;11258;52.516;13.318;2023-09-18T00:37:12;21.10;99.90
22185;DHT22;11258;52.516;13.318;2023-09-18T00:39:38;21.10;99.90
22185;DHT22;11258;52.516;13.318;2023-09-18T00:42:04;21.10;99.90
22185;DHT22;11258;52.516;13.318;2023-09-18T00:44:30;21.10;99.90
22185;DHT22;11258;52.516;13.318;2023-09-18T00:46:55;21.10;99.90
22185;DHT22;11258;52.516;13.318;2023-09-18T00:49:22;21.10;99.90
22185;DHT22;11258;52.516;13.318;2023-09-18T00:51:49;21.10;99.90
22185;DHT22;11258;52.516;13.318;2023-09-18T00:54:17;21.10;99.90
22185;DHT22;11258;52.516;13.318;2023-09-18T00:56:44;21.10;99.90
22185;DHT22;11258;52.516;13.318;2023-09-18T00:59:10;21.10;99.90
22185;DHT22;11258;52.516;13.318;2023-09-18T01:01:37;21.00;99.90
22185;DHT22;11258;52.516;13.318;2023-09-18T01:04:03;21.00;99.90
22185;DHT22;11258;52.516;13.318;2023-09-18T01:06:29;21.00;99.90
22185;DHT22;11258;52.516;13.318;2023-09-18T01:08:56;21.00;99.90
22185;DHT22;11258;52.516;13.318;2023-09-18T01:16:56;21.00;99.90
22185;DHT22;11258;52.516;13.318;2023-09-18T01:19:36;20.90;99.90
22185;DHT22;11258;52.516;13.318;2023-09-18T01:22:04;20.90;99.90
22185;DHT22;11258;52.516;13.318;2023-09-18T01:24:32;20.80;99.90
22185;DHT22;11258;52.516;13.318;2023-09-18T01:26:57;20.80;99.90
22185;DHT22;11258;52.516;13.318;2023-09-18T01:29:23;20.80;99.90
22185;DHT22;11258;52.516;13.318;2023-09-18T01:31:48;20.80;99.90
22185;DHT22;11258;52.516;13.318;2023-09-18T01:34:25;20.70;99.90
22185;DHT22;11258;52.516;13.318;2023-09-18T01:36:52;20.70;99.90
22185;DHT22;11258;52.516;13.318;2023-09-18T01:39:19;20.80;99.90
22185;DHT22;11258;52.516;13.318;2023-09-18T01:41:45;20.70;99.90
22185;DHT22;11258;52.516;13.318;2023-09-18T01:44:12;20.70;99.90
22185;DHT22;11258;52.516;13.318;2023-09-18T01:46:38;20.70;99.90
22185;DHT22;11258;52.516;13.318;2023-09-18T01:49:04;20.60;99.90
22185;DHT22;11258;52.516;13.318;2023-09-18T01:51:30;20.60;99.90
22185;DHT22;11258;52.516;13.318;2023-09-18T01:53:56;20.60;99.90
22185;DHT22;11258;52.516;13.318;2023-09-18T01:56:22;20.50;99.90
22185;DHT22;11258;52.516;13.318;2023-09-18T01:58:49;20.50;99.90
22185;DHT22;11258;52.516;13.318;2023-09-18T02:01:15;20.50;99.90
22185;DHT22;11258;52.516;13.318;2023-09-18T02:03:40;20.50;99.90
22185;DHT22;11258;52.516;13.318;2023-09-18T02:06:10;20.50;99.90
22185;DHT22;11258;52.516;13.318;2023-09-18T02:08:35;20.40;99.90
22185;DHT22;11258;52.516;13.318;2023-09-18T02:11:01;20.40;99.90
22185;DHT22;11258;52.516;13.318;2023-09-18T02:13:28;20.30;99.90
22185;DHT22;11258;52.516;13.318;2023-09-18T02:15:54;20.30;99.90
22185;DHT22;11258;52.516;13.318;2023-09-18T02:18:20;20.20;99.90
22185;DHT22;11258;52.516;13.318;2023-09-18T02:20:46;20.20;99.90
22185;DHT22;11258;52.516;13.318;2023-09-18T02:23:17;20.20;99.90
22185;DHT22;11258;52.516;13.318;2023-09-18T02:25:44;20.20;99.90
22185;DHT22;11258;52.516;13.318;2023-09-18T02:28:09;20.10;99.90
22185;DHT22;11258;52.516;13.318;2023-09-18T02:30:35;20.20;99.90
22185;DHT22;11258;52.516;13.318;2023-09-18T02:33:01;20.10;99.90
22185;DHT22;11258;52.516;13.318;2023-09-18T02:35:29;20.20;99.90
22185;DHT22;11258;52.516;13.318;2023-09-18T02:37:55;20.20;99.90
22185;DHT22;11258;52.516;13.318;2023-09-18T02:40:20;20.20;99.90
22185;DHT22;11258;52.516;13.318;2023-09-18T02:42:46;20.10;99.90
22185;DHT22;11258;52.516;13.318;2023-09-18T02:45:12;20.10;99.90
22185;DHT22;11258;52.516;13.318;2023-09-18T02:47:37;20.20;99.90
22185;DHT22;11258;52.516;13.318;2023-09-18T02:50:06;20.10;99.90
22185;DHT22;11258;52.516;13.318;2023-09-18T02:52:32;20.10;99.90
22185;DHT22;11258;52.516;13.318;2023-09-18T02:54:58;20.00;99.90
22185;DHT22;11258;52.516;13.318;2023-09-18T02:57:23;20.00;99.90
22185;DHT22;11258;52.516;13.318;2023-09-18T02:59:49;20.00;99.90
22185;DHT22;11258;52.516;13.318;2023-09-18T03:02:15;20.00;99.90
22185;DHT22;11258;52.516;13.318;2023-09-18T03:04:40;19.90;99.90
22185;DHT22;11258;52.516;13.318;2023-09-18T03:07:06;19.90;99.90
22185;DHT22;11258;52.516;13.318;2023-09-18T03:09:31;19.90;99.90
22185;DHT22;11258;52.516;13.318;2023-09-18T03:11:57;19.80;99.90
22185;DHT22;11258;52.516;13.318;2023-09-18T03:14:23;19.90;99.90
22185;DHT22;11258;52.516;13.318;2023-09-18T03:16:48;19.80;99.90
22185;DHT22;11258;52.516;13.318;2023-09-18T03:19:15;19.80;99.90
22185;DHT22;11258;52.516;13.318;2023-09-18T03:21:41;19.80;99.90
22185;DHT22;11258;52.516;13.318;2023-09-18T03:24:07;19.80;99.90
22185;DHT22;11258;52.516;13.318;2023-09-18T03:26:32;19.70;99.90
22185;DHT22;11258;52.516;13.318;2023-09-18T03:28:58;19.70;99.90
22185;DHT22;11258;52.516;13.318;2023-09-18T03:31:24;19.70;99.90
22185;DHT22;11258;52.516;13.318;2023-09-18T03:33:49;19.70;99.90
22185;DHT22;11258;52.516;13.318;2023-09-18T03:36:15;19.70;99.90
22185;DHT22;11258;52.516;13.318;2023-09-18T03:38:40;19.60;99.90
22185;DHT22;11258;52.516;13.318;2023-09-18T03:41:06;19.60;99.90
22185;DHT22;11258;52.516;13.318;2023-09-18T03:43:32;19.60;99.90
22185;DHT22;11258;52.516;13.318;2023-09-18T03:46:07;19.50;99.90
22185;DHT22;11258;52.516;13.318;2023-09-18T03:48:33;19.50;99.90
22185;DHT22;11258;52.516;13.318;2023-09-18T03:51:05;19.50;99.90
22185;DHT22;11258;52.516;13.318;2023-09-18T03:53:32;19.40;99.90
22185;DHT22;11258;52.516;13.318;2023-09-18T03:55:59;19.50;99.90
22185;DHT22;11258;52.516;13.318;2023-09-18T03:58:24;19.40;99.90
22185;DHT22;11258;52.516;13.318;2023-09-18T04:00:50;19.40;99.90
22185;DHT22;11258;52.516;13.318;2023-09-18T04:03:17;19.40;99.90
22185;DHT22;11258;52.516;13.318;2023-09-18T04:05:42;19.50;99.90
22185;DHT22;11258;52.516;13.318;2023-09-18T04:08:08;19.40;99.90
22185;DHT22;11258;52.516;13.318;2023-09-18T04:10:34;19.30;99.90
22185;DHT22;11258;52.516;13.318;2023-09-18T04:13:00;19.30;99.90
22185;DHT22;11258;52.516;13.318;2023-09-18T04:15:26;19.40;99.90
22185;DHT22;11258;52.516;13.318;2023-09-18T04:17:53;19.20;99.90
22185;DHT22;11258;52.516;13.318;2023-09-18T04:20:19;19.30;99.90
22185;DHT22;11258;52.516;13.318;2023-09-18T04:22:47;19.30;99.90
22185;DHT22;11258;52.516;13.318;2023-09-18T04:25:16;19.30;99.90
22185;DHT22;11258;52.516;13.318;2023-09-18T04:27:42;19.30;99.90
22185;DHT22;11258;52.516;13.318;2023-09-18T04:30:08;19.30;99.90
22185;DHT22;11258;52.516;13.318;2023-09-18T04:32:37;19.30;99.90
22185;DHT22;11258;52.516;13.318;2023-09-18T04:35:04;19.20;99.90
22185;DHT22;11258;52.516;13.318;2023-09-18T04:37:30;19.20;99.90
22185;DHT22;11258;52.516;13.318;2023-09-18T04:39:57;19.30;99.90
22185;DHT22;11258;52.516;13.318;2023-09-18T04:42:23;19.20;99.90
22185;DHT22;11258;52.516;13.318;2023-09-18T04:44:49;19.10;99.90
22185;DHT22;11258;52.516;13.318;2023-09-18T04:47:14;19.10;99.90
22185;DHT22;11258;52.516;13.318;2023-09-18T04:49:40;19.10;99.90
22185;DHT22;11258;52.516;13.318;2023-09-18T04:52:06;19.10;99.90
22185;DHT22;11258;52.516;13.318;2023-09-18T04:54:32;19.20;99.90
22185;DHT22;11258;52.516;13.318;2023-09-18T04:56:57;19.10;99.90
22185;DHT22;11258;52.516;13.318;2023-09-18T04:59:23;19.10;99.90
22185;DHT22;11258;52.516;13.318;2023-09-18T05:01:48;19.20;99.90
22185;DHT22;11258;52.516;13.318;2023-09-18T05:04:14;19.30;99.90
22185;DHT22;11258;52.516;13.318;2023-09-18T05:06:40;19.30;99.90
22185;DHT22;11258;52.516;13.318;2023-09-18T05:09:07;19.30;99.90
22185;DHT22;11258;52.516;13.318;2023-09-18T05:11:33;19.40;99.90
22185;DHT22;11258;52.516;13.318;2023-09-18T05:13:59;19.30;99.90
22185;DHT22;11258;52.516;13.318;2023-09-18T05:16:25;19.40;99.90
22185;DHT22;11258;52.516;13.318;2023-09-18T05:18:50;19.30;99.90
22185;DHT22;11258;52.516;13.318;2023-09-18T05:21:16;19.30;99.90
22185;DHT22;11258;52.516;13.318;2023-09-18T05:23:43;19.40;99.90
22185;DHT22;11258;52.516;13.318;2023-09-18T05:26:08;19.60;99.90
22185;DHT22;11258;52.516;13.318;2023-09-18T05:28:34;19.60;99.90
22185;DHT22;11258;52.516;13.318;2023-09-18T05:31:00;19.50;99.90
22185;DHT22;11258;52.516;13.318;2023-09-18T05:33:25;19.70;99.90
22185;DHT22;11258;52.516;13.318;2023-09-18T05:35:51;19.60;99.90
22185;DHT22;11258;52.516;13.318;2023-09-18T05:38:17;20.20;99.90
22185;DHT22;11258;52.516;13.318;2023-09-18T05:40:43;20.60;99.90
22185;DHT22;11258;52.516;13.318;2023-09-18T05:43:10;20.80;99.90
22185;DHT22;11258;52.516;13.318;2023-09-18T05:45:37;21.20;99.90
22185;DHT22;11258;52.516;13.318;2023-09-18T05:48:04;22.20;99.90
22185;DHT22;11258;52.516;13.318;2023-09-18T05:50:30;23.70;99.90
22185;DHT22;11258;52.516;13.318;2023-09-18T05:52:57;24.30;99.90
22185;DHT22;11258;52.516;13.318;2023-09-18T05:55:26;24.60;99.90
22185;DHT22;11258;52.516;13.318;2023-09-18T05:57:52;24.60;99.90
22185;DHT22;11258;52.516;13.318;2023-09-18T06:00:18;24.40;99.90
22185;DHT22;11258;52.516;13.318;2023-09-18T06:02:44;25.00;99.90
22185;DHT22;11258;52.516;13.318;2023-09-18T06:05:11;24.90;99.90
22185;DHT22;11258;52.516;13.318;2023-09-18T06:07:37;24.80;99.90
22185;DHT22;11258;52.516;13.318;2023-09-18T06:10:02;25.50;99.90
22185;DHT22;11258;52.516;13.318;2023-09-18T06:12:28;24.90;99.90
22185;DHT22;11258;52.516;13.318;2023-09-18T06:14:54;25.40;99.90
22185;DHT22;11258;52.516;13.318;2023-09-18T06:17:20;25.20;99.90
22185;DHT22;11258;52.516;13.318;2023-09-18T06:19:46;24.60;99.90
22185;DHT22;11258;52.516;13.318;2023-09-18T06:22:12;24.20;99.90
22185;DHT22;11258;52.516;13.318;2023-09-18T06:24:38;23.90;99.90
22185;DHT22;11258;52.516;13.318;2023-09-18T06:27:04;23.60;99.90
22185;DHT22;11258;52.516;13.318;2023-09-18T06:29:30;23.10;99.90
22185;DHT22;11258;52.516;13.318;2023-09-18T06:31:56;23.70;99.90
22185;DHT22;11258;52.516;13.318;2023-09-18T06:34:22;24.40;99.90
22185;DHT22;11258;52.516;13.318;2023-09-18T06:36:47;25.00;99.90
22185;DHT22;11258;52.516;13.318;2023-09-18T06:39:13;25.10;99.90
22185;DHT22;11258;52.516;13.318;2023-09-18T06:41:39;26.00;99.90
22185;DHT22;11258;52.516;13.318;2023-09-18T06:44:05;27.20;99.90
22185;DHT22;11258;52.516;13.318;2023-09-18T06:46:31;28.40;99.90
22185;DHT22;11258;52.516;13.318;2023-09-18T06:48:56;28.60;99.90
22185;DHT22;11258;52.516;13.318;2023-09-18T06:51:25;28.80;99.90
22185;DHT22;11258;52.516;13.318;2023-09-18T06:53:51;28.70;99.90
22185;DHT22;11258;52.516;13.318;2023-09-18T06:56:16;28.40;99.90
22185;DHT22;11258;52.516;13.318;2023-09-18T06:58:42;28.40;99.90
22185;DHT22;11258;52.516;13.318;2023-09-18T07:01:08;29.40;99.90
22185;DHT22;11258;52.516;13.318;2023-09-18T07:03:35;28.90;99.90
22185;DHT22;11258;52.516;13.318;2023-09-18T07:06:02;29.00;99.90
22185;DHT22;11258;52.516;13.318;2023-09-18T07:08:29;30.00;99.90
22185;DHT22;11258;52.516;13.318;2023-09-18T07:10:56;29.80;99.90
22185;DHT22;11258;52.516;13.318;2023-09-18T07:13:22;29.80;99.90
22185;DHT22;11258;52.516;13.318;2023-09-18T07:15:47;29.80;99.90
22185;DHT22;11258;52.516;13.318;2023-09-18T07:18:13;29.90;99.90
22185;DHT22;11258;52.516;13.318;2023-09-18T07:20:46;30.00;99.90
22185;DHT22;11258;52.516;13.318;2023-09-18T07:23:12;30.70;99.90
22185;DHT22;11258;52.516;13.318;2023-09-18T07:25:37;30.90;99.90
22185;DHT22;11258;52.516;13.318;2023-09-18T07:28:06;31.10;99.90
22185;DHT22;11258;52.516;13.318;2023-09-18T07:30:31;31.30;99.90
22185;DHT22;11258;52.516;13.318;2023-09-18T07:32:57;31.60;99.90
22185;DHT22;11258;52.516;13.318;2023-09-18T07:35:23;30.40;99.90
22185;DHT22;11258;52.516;13.318;2023-09-18T07:37:49;30.60;99.90
22185;DHT22;11258;52.516;13.318;2023-09-18T07:40:15;30.90;99.90
22185;DHT22;11258;52.516;13.318;2023-09-18T07:42:43;30.30;99.90
22185;DHT22;11258;52.516;13.318;2023-09-18T07:45:10;30.60;99.90
22185;DHT22;11258;52.516;13.318;2023-09-18T07:47:36;30.50;99.90
22185;DHT22;11258;52.516;13.318;2023-09-18T07:50:01;30.20;99.90
22185;DHT22;11258;52.516;13.318;2023-09-18T07:52:28;30.50;99.90
22185;DHT22;11258;52.516;13.318;2023-09-18T07:54:53;30.40;99.90
22185;DHT22;11258;52.516;13.318;2023-09-18T07:57:19;30.10;99.90
22185;DHT22;11258;52.516;13.318;2023-09-18T07:59:46;28.90;99.90
22185;DHT22;11258;52.516;13.318;2023-09-18T08:02:12;29.20;99.90
22185;DHT22;11258;52.516;13.318;2023-09-18T08:04:37;29.90;99.90
22185;DHT22;11258;52.516;13.318;2023-09-18T08:07:03;30.20;99.90
22185;DHT22;11258;52.516;13.318;2023-09-18T08:09:31;30.90;99.90
22185;DHT22;11258;52.516;13.318;2023-09-18T08:11:57;30.30;99.90
22185;DHT22;11258;52.516;13.318;2023-09-18T08:14:22;30.50;99.90
22185;DHT22;11258;52.516;13.318;2023-09-18T08:16:48;30.70;99.90
22185;DHT22;11258;52.516;13.318;2023-09-18T08:19:21;31.30;99.90
22185;DHT22;11258;52.516;13.318;2023-09-18T08:21:46;31.10;99.90
22185;DHT22;11258;52.516;13.318;2023-09-18T08:24:12;31.20;99.90
22185;DHT22;11258;52.516;13.318;2023-09-18T08:26:38;31.30;99.90
22185;DHT22;11258;52.516;13.318;2023-09-18T08:29:04;30.60;99.90
22185;DHT22;11258;52.516;13.318;2023-09-18T08:31:30;30.00;99.90
22185;DHT22;11258;52.516;13.318;2023-09-18T08:33:57;29.50;99.90
22185;DHT22;11258;52.516;13.318;2023-09-18T08:36:23;29.90;99.90
22185;DHT22;11258;52.516;13.318;2023-09-18T08:38:48;29.80;99.90
22185;DHT22;11258;52.516;13.318;2023-09-18T08:41:14;29.40;99.90
22185;DHT22;11258;52.516;13.318;2023-09-18T08:43:43;29.90;99.90
22185;DHT22;11258;52.516;13.318;2023-09-18T08:46:10;30.20;99.90
22185;DHT22;11258;52.516;13.318;2023-09-18T08:48:35;30.10;99.90
22185;DHT22;11258;52.516;13.318;2023-09-18T08:51:03;29.80;99.90
22185;DHT22;11258;52.516;13.318;2023-09-18T08:53:34;29.70;99.90
22185;DHT22;11258;52.516;13.318;2023-09-18T08:56:02;29.10;99.90
22185;DHT22;11258;52.516;13.318;2023-09-18T08:58:34;28.80;99.90
22185;DHT22;11258;52.516;13.318;2023-09-18T09:01:02;28.60;99.90
22185;DHT22;11258;52.516;13.318;2023-09-18T09:03:29;28.30;99.90
22185;DHT22;11258;52.516;13.318;2023-09-18T09:05:56;28.10;99.90
22185;DHT22;11258;52.516;13.318;2023-09-18T09:08:21;27.90;99.90
22185;DHT22;11258;52.516;13.318;2023-09-18T09:10:48;28.30;99.90
22185;DHT22;11258;52.516;13.318;2023-09-18T09:13:14;28.30;99.90
22185;DHT22;11258;52.516;13.318;2023-09-18T09:15:47;28.50;99.90
22185;DHT22;11258;52.516;13.318;2023-09-18T09:18:13;29.00;99.90
22185;DHT22;11258;52.516;13.318;2023-09-18T09:20:56;29.40;99.90
22185;DHT22;11258;52.516;13.318;2023-09-18T09:23:29;28.50;99.90
22185;DHT22;11258;52.516;13.318;2023-09-18T09:26:15;28.00;99.90
22185;DHT22;11258;52.516;13.318;2023-09-18T09:28:43;27.90;99.90
22185;DHT22;11258;52.516;13.318;2023-09-18T09:31:09;28.20;99.90
22185;DHT22;11258;52.516;13.318;2023-09-18T09:33:36;28.80;99.90
22185;DHT22;11258;52.516;13.318;2023-09-18T09:36:05;28.40;99.90
22185;DHT22;11258;52.516;13.318;2023-09-18T09:38:33;28.40;99.90
22185;DHT22;11258;52.516;13.318;2023-09-18T09:41:02;28.50;99.90
22185;DHT22;11258;52.516;13.318;2023-09-18T09:43:31;28.30;99.90
22185;DHT22;11258;52.516;13.318;2023-09-18T09:45:58;28.50;99.90
22185;DHT22;11258;52.516;13.318;2023-09-18T09:48:25;28.40;99.90
22185;DHT22;11258;52.516;13.318;2023-09-18T09:50:59;28.30;99.90
22185;DHT22;11258;52.516;13.318;2023-09-18T09:53:45;28.00;99.90
22185;DHT22;11258;52.516;13.318;2023-09-18T09:56:14;27.50;99.90
22185;DHT22;11258;52.516;13.318;2023-09-18T09:58:40;27.20;99.90
22185;DHT22;11258;52.516;13.318;2023-09-18T10:01:11;27.60;99.90
22185;DHT22;11258;52.516;13.318;2023-09-18T10:03:44;27.40;99.90
22185;DHT22;11258;52.516;13.318;2023-09-18T10:06:11;27.50;99.90
22185;DHT22;11258;52.516;13.318;2023-09-18T10:08:40;27.40;99.90
22185;DHT22;11258;52.516;13.318;2023-09-18T10:11:07;27.40;99.90
22185;DHT22;11258;52.516;13.318;2023-09-18T10:13:46;27.40;99.90
22185;DHT22;11258;52.516;13.318;2023-09-18T10:16:13;27.30;99.90
22185;DHT22;11258;52.516;13.318;2023-09-18T10:21:32;27.10;99.90
22185;DHT22;11258;52.516;13.318;2023-09-18T10:24:08;27.20;99.90
22185;DHT22;11258;52.516;13.318;2023-09-18T10:26:44;27.30;99.90
22185;DHT22;11258;52.516;13.318;2023-09-18T10:29:14;27.30;99.90
22185;DHT22;11258;52.516;13.318;2023-09-18T10:31:40;27.30;99.90
22185;DHT22;11258;52.516;13.318;2023-09-18T10:34:07;27.40;99.90
22185;DHT22;11258;52.516;13.318;2023-09-18T10:36:34;27.60;99.90
22185;DHT22;11258;52.516;13.318;2023-09-18T10:39:00;27.80;99.90
22185;DHT22;11258;52.516;13.318;2023-09-18T10:41:27;27.80;99.90
22185;DHT22;11258;52.516;13.318;2023-09-18T10:43:56;27.60;99.90
22185;DHT22;11258;52.516;13.318;2023-09-18T10:46:25;27.40;99.90
22185;DHT22;11258;52.516;13.318;2023-09-18T10:48:52;27.60;99.90
22185;DHT22;11258;52.516;13.318;2023-09-18T10:51:21;27.40;99.90
22185;DHT22;11258;52.516;13.318;2023-09-18T10:53:50;27.20;99.90
22185;DHT22;11258;52.516;13.318;2023-09-18T10:56:19;27.10;99.90
22185;DHT22;11258;52.516;13.318;2023-09-18T10:58:45;27.20;99.90
22185;DHT22;11258;52.516;13.318;2023-09-18T11:01:13;27.10;99.90
22185;DHT22;11258;52.516;13.318;2023-09-18T11:03:39;27.10;99.90
22185;DHT22;11258;52.516;13.318;2023-09-18T11:06:08;27.00;99.90
22185;DHT22;11258;52.516;13.318;2023-09-18T11:08:47;26.80;99.90
22185;DHT22;11258;52.516;13.318;2023-09-18T11:11:13;26.80;99.90
22185;DHT22;11258;52.516;13.318;2023-09-18T11:14:10;26.60;99.90
22185;DHT22;11258;52.516;13.318;2023-09-18T11:16:36;26.60;99.90
22185;DHT22;11258;52.516;13.318;2023-09-18T11:21:32;26.60;99.90
22185;DHT22;11258;52.516;13.318;2023-09-18T11:26:24;26.70;99.90
22185;DHT22;11258;52.516;13.318;2023-09-18T11:28:53;26.80;99.90
22185;DHT22;11258;52.516;13.318;2023-09-18T11:31:19;26.60;99.90
22185;DHT22;11258;52.516;13.318;2023-09-18T11:33:47;26.70;99.90
22185;DHT22;11258;52.516;13.318;2023-09-18T11:36:28;26.70;99.90
22185;DHT22;11258;52.516;13.318;2023-09-18T11:38:59;26.80;99.90
22185;DHT22;11258;52.516;13.318;2023-09-18T11:41:31;26.70;99.90
22185;DHT22;11258;52.516;13.318;2023-09-18T11:46:50;26.60;99.90
22185;DHT22;11258;52.516;13.318;2023-09-18T11:49:21;26.50;99.90
22185;DHT22;11258;52.516;13.318;2023-09-18T11:51:53;26.50;99.90
22185;DHT22;11258;52.516;13.318;2023-09-18T11:54:20;26.70;99.90
22185;DHT22;11258;52.516;13.318;2023-09-18T11:56:47;26.50;99.90
22185;DHT22;11258;52.516;13.318;2023-09-18T11:59:12;26.50;99.90
22185;DHT22;11258;52.516;13.318;2023-09-18T12:01:39;26.60;99.90
22185;DHT22;11258;52.516;13.318;2023-09-18T12:04:12;26.50;99.90
22185;DHT22;11258;52.516;13.318;2023-09-18T12:06:41;26.40;99.90
22185;DHT22;11258;52.516;13.318;2023-09-18T12:09:07;26.50;99.90
22185;DHT22;11258;52.516;13.318;2023-09-18T12:11:34;26.60;99.90
22185;DHT22;11258;52.516;13.318;2023-09-18T12:14:01;26.60;99.90
22185;DHT22;11258;52.516;13.318;2023-09-18T12:16:28;27.00;99.90
22185;DHT22;11258;52.516;13.318;2023-09-18T12:18:53;27.00;99.90
22185;DHT22;11258;52.516;13.318;2023-09-18T12:21:19;27.20;99.90
22185;DHT22;11258;52.516;13.318;2023-09-18T12:23:45;27.40;99.90
22185;DHT22;11258;52.516;13.318;2023-09-18T12:26:12;27.50;99.90
22185;DHT22;11258;52.516;13.318;2023-09-18T12:28:40;27.60;99.90
22185;DHT22;11258;52.516;13.318;2023-09-18T12:31:09;27.30;99.90
22185;DHT22;11258;52.516;13.318;2023-09-18T12:33:36;27.40;99.90
22185;DHT22;11258;52.516;13.318;2023-09-18T12:36:03;27.40;99.90
22185;DHT22;11258;52.516;13.318;2023-09-18T12:38:30;27.20;99.90
22185;DHT22;11258;52.516;13.318;2023-09-18T12:40:56;27.10;99.90
22185;DHT22;11258;52.516;13.318;2023-09-18T12:43:26;27.00;99.90
22185;DHT22;11258;52.516;13.318;2023-09-18T12:45:55;26.70;99.90
22185;DHT22;11258;52.516;13.318;2023-09-18T12:48:21;26.60;99.90
22185;DHT22;11258;52.516;13.318;2023-09-18T12:50:52;26.60;99.90
22185;DHT22;11258;52.516;13.318;2023-09-18T12:53:22;26.60;99.90
22185;DHT22;11258;52.516;13.318;2023-09-18T12:55:48;26.70;99.90
22185;DHT22;11258;52.516;13.318;2023-09-18T12:58:19;26.70;99.90
22185;DHT22;11258;52.516;13.318;2023-09-18T13:00:48;26.70;99.90
22185;DHT22;11258;52.516;13.318;2023-09-18T13:03:18;26.70;99.90
22185;DHT22;11258;52.516;13.318;2023-09-18T13:05:44;26.70;99.90
22185;DHT22;11258;52.516;13.318;2023-09-18T13:08:09;26.60;99.90
22185;DHT22;11258;52.516;13.318;2023-09-18T13:10:44;26.60;99.90
22185;DHT22;11258;52.516;13.318;2023-09-18T13:13:20;26.60;99.90
22185;DHT22;11258;52.516;13.318;2023-09-18T13:15:47;26.40;99.90
22185;DHT22;11258;52.516;13.318;2023-09-18T13:18:14;26.50;99.90
22185;DHT22;11258;52.516;13.318;2023-09-18T13:20:41;26.50;99.90
22185;DHT22;11258;52.516;13.318;2023-09-18T13:23:07;26.40;99.90
22185;DHT22;11258;52.516;13.318;2023-09-18T13:25:34;26.40;99.90
22185;DHT22;11258;52.516;13.318;2023-09-18T13:28:03;26.40;99.90
22185;DHT22;11258;52.516;13.318;2023-09-18T13:30:30;26.30;99.90
22185;DHT22;11258;52.516;13.318;2023-09-18T13:33:22;26.20;99.90
22185;DHT22;11258;52.516;13.318;2023-09-18T13:35:49;26.10;99.90
22185;DHT22;11258;52.516;13.318;2023-09-18T13:38:15;25.90;99.90
22185;DHT22;11258;52.516;13.318;2023-09-18T13:40:41;25.80;99.90
22185;DHT22;11258;52.516;13.318;2023-09-18T13:43:09;25.70;99.90
22185;DHT22;11258;52.516;13.318;2023-09-18T13:45:35;25.60;99.90
22185;DHT22;11258;52.516;13.318;2023-09-18T13:48:04;25.50;99.90
22185;DHT22;11258;52.516;13.318;2023-09-18T13:50:34;25.40;99.90
22185;DHT22;11258;52.516;13.318;2023-09-18T13:53:03;25.30;99.90
22185;DHT22;11258;52.516;13.318;2023-09-18T13:55:33;25.10;99.90
22185;DHT22;11258;52.516;13.318;2023-09-18T13:57:59;25.10;99.90
22185;DHT22;11258;52.516;13.318;2023-09-18T14:00:25;25.00;99.90
22185;DHT22;11258;52.516;13.318;2023-09-18T14:02:51;25.20;99.90
22185;DHT22;11258;52.516;13.318;2023-09-18T14:05:17;25.10;99.90
22185;DHT22;11258;52.516;13.318;2023-09-18T14:07:43;25.10;99.90
22185;DHT22;11258;52.516;13.318;2023-09-18T14:10:10;25.10;99.90
22185;DHT22;11258;52.516;13.318;2023-09-18T14:12:39;25.10;99.90
22185;DHT22;11258;52.516;13.318;2023-09-18T14:15:06;25.20;99.90
22185;DHT22;11258;52.516;13.318;2023-09-18T14:17:32;25.20;99.90
22185;DHT22;11258;52.516;13.318;2023-09-18T14:19:58;25.10;99.90
22185;DHT22;11258;52.516;13.318;2023-09-18T14:22:24;25.00;99.90
22185;DHT22;11258;52.516;13.318;2023-09-18T14:24:50;25.30;99.90
22185;DHT22;11258;52.516;13.318;2023-09-18T14:27:16;25.50;99.90
22185;DHT22;11258;52.516;13.318;2023-09-18T14:29:42;25.60;99.90
22185;DHT22;11258;52.516;13.318;2023-09-18T14:32:07;25.40;99.90
22185;DHT22;11258;52.516;13.318;2023-09-18T14:34:34;25.50;99.90
22185;DHT22;11258;52.516;13.318;2023-09-18T14:37:02;25.50;99.90
22185;DHT22;11258;52.516;13.318;2023-09-18T14:39:33;25.40;99.90
22185;DHT22;11258;52.516;13.318;2023-09-18T14:41:59;25.50;99.90
22185;DHT22;11258;52.516;13.318;2023-09-18T14:44:25;25.40;99.90
22185;DHT22;11258;52.516;13.318;2023-09-18T14:46:53;25.30;99.90
22185;DHT22;11258;52.516;13.318;2023-09-18T14:49:19;25.30;99.90
22185;DHT22;11258;52.516;13.318;2023-09-18T14:51:45;25.20;99.90
22185;DHT22;11258;52.516;13.318;2023-09-18T14:54:11;25.10;99.90
22185;DHT22;11258;52.516;13.318;2023-09-18T14:56:36;25.20;99.90
22185;DHT22;11258;52.516;13.318;2023-09-18T14:59:03;25.20;99.90
22185;DHT22;11258;52.516;13.318;2023-09-18T15:01:28;25.30;99.90
22185;DHT22;11258;52.516;13.318;2023-09-18T15:03:54;25.30;99.90
22185;DHT22;11258;52.516;13.318;2023-09-18T15:06:20;25.30;99.90
22185;DHT22;11258;52.516;13.318;2023-09-18T15:08:46;25.40;99.90
22185;DHT22;11258;52.516;13.318;2023-09-18T15:11:13;25.30;99.90
22185;DHT22;11258;52.516;13.318;2023-09-18T15:13:42;25.30;99.90
22185;DHT22;11258;52.516;13.318;2023-09-18T15:16:08;25.40;99.90
22185;DHT22;11258;52.516;13.318;2023-09-18T15:18:34;25.40;99.90
22185;DHT22;11258;52.516;13.318;2023-09-18T15:21:01;25.40;99.90
22185;DHT22;11258;52.516;13.318;2023-09-18T15:23:27;25.40;99.90
22185;DHT22;11258;52.516;13.318;2023-09-18T15:25:55;25.40;99.90
22185;DHT22;11258;52.516;13.318;2023-09-18T15:28:21;25.40;99.90
22185;DHT22;11258;52.516;13.318;2023-09-18T15:30:49;25.30;99.90